EWG8EL EGLL-EDDK
Flight info
| Callsign | EWG8EL |
|---|---|
| Flight time | 0h 50m |
| Altitude | 33000 |
| Route | DET L6 DVR UL9 KONAN DCT KOK UL607 SPI T857 DENOV T861 ERUKI T856 DEPOK |
| Aircraft | A319/M-SDE3FGHIRWY/LB1 |
Departure
| Time | 2026-05-07 19:45 |
|---|---|
| Airport | London Heathrow Airport (EGLL) |
Arrival
| Time | 2026-05-07 20:36 |
|---|---|
| Airport | Cologne Bonn Airport (EDDK) |
| Time | Latitude | Longitude | Altitude | Speed | Heading |
|---|---|---|---|---|---|
| 2026-05-07 19:06 | 51.46828 | -0.45181 | 86 ft | 0 kts | 359° |
| 2026-05-07 19:27 | 51.46816 | -0.45181 | 91 ft | 4 kts | 358° |
| 2026-05-07 19:28 | 51.46789 | -0.45179 | 88 ft | 4 kts | 352° |
| 2026-05-07 19:28 | 51.46764 | -0.45169 | 89 ft | 4 kts | 328° |
| 2026-05-07 19:28 | 51.46752 | -0.45147 | 90 ft | 1 kts | 270° |
| 2026-05-07 19:28 | 51.46752 | -0.45146 | 90 ft | 0 kts | 270° |
| 2026-05-07 19:32 | 51.46752 | -0.45163 | 89 ft | 3 kts | 269° |
| 2026-05-07 19:32 | 51.46751 | -0.45207 | 87 ft | 5 kts | 269° |
| 2026-05-07 19:32 | 51.46751 | -0.45281 | 86 ft | 9 kts | 269° |
| 2026-05-07 19:32 | 51.46729 | -0.45383 | 86 ft | 11 kts | 214° |
| 2026-05-07 19:33 | 51.46664 | -0.45445 | 87 ft | 12 kts | 254° |
| 2026-05-07 19:33 | 51.46663 | -0.45595 | 86 ft | 15 kts | 269° |
| 2026-05-07 19:33 | 51.46661 | -0.45768 | 86 ft | 16 kts | 270° |
| 2026-05-07 19:33 | 51.46661 | -0.45962 | 86 ft | 18 kts | 270° |
| 2026-05-07 19:34 | 51.46660 | -0.46176 | 90 ft | 20 kts | 270° |
| 2026-05-07 19:34 | 51.46659 | -0.46404 | 89 ft | 21 kts | 269° |
| 2026-05-07 19:34 | 51.46658 | -0.46639 | 89 ft | 21 kts | 270° |
| 2026-05-07 19:34 | 51.46658 | -0.46878 | 86 ft | 22 kts | 269° |
| 2026-05-07 19:35 | 51.46657 | -0.47121 | 86 ft | 22 kts | 270° |
| 2026-05-07 19:35 | 51.46656 | -0.47369 | 86 ft | 22 kts | 269° |
| 2026-05-07 19:35 | 51.46654 | -0.47619 | 86 ft | 23 kts | 269° |
| 2026-05-07 19:35 | 51.46654 | -0.47857 | 86 ft | 20 kts | 270° |
| 2026-05-07 19:36 | 51.46653 | -0.48040 | 86 ft | 12 kts | 270° |
| 2026-05-07 19:36 | 51.46653 | -0.48102 | 86 ft | 0 kts | 270° |
| 2026-05-07 19:36 | 51.46653 | -0.48104 | 86 ft | 0 kts | 270° |
| 2026-05-07 19:39 | 51.46653 | -0.48106 | 86 ft | 1 kts | 270° |
| 2026-05-07 19:40 | 51.46653 | -0.48167 | 86 ft | 7 kts | 270° |
| 2026-05-07 19:40 | 51.46653 | -0.48270 | 86 ft | 11 kts | 270° |
| 2026-05-07 19:40 | 51.46652 | -0.48415 | 86 ft | 14 kts | 269° |
| 2026-05-07 19:40 | 51.46651 | -0.48584 | 86 ft | 15 kts | 270° |
| 2026-05-07 19:41 | 51.46645 | -0.48730 | 90 ft | 12 kts | 243° |
| 2026-05-07 19:41 | 51.46596 | -0.48770 | 89 ft | 3 kts | 198° |
| 2026-05-07 19:41 | 51.46595 | -0.48771 | 89 ft | 0 kts | 198° |
| 2026-05-07 19:43 | 51.46593 | -0.48772 | 88 ft | 1 kts | 198° |
| 2026-05-07 19:43 | 51.46559 | -0.48787 | 89 ft | 10 kts | 191° |
| 2026-05-07 19:43 | 51.46485 | -0.48722 | 88 ft | 14 kts | 117° |
| 2026-05-07 19:44 | 51.46478 | -0.48623 | 86 ft | 0 kts | 89° |
| 2026-05-07 19:45 | 51.46479 | -0.48423 | 87 ft | 54 kts | 90° |
| 2026-05-07 19:45 | 51.46481 | -0.47420 | 86 ft | 124 kts | 90° |
| 2026-05-07 19:45 | 51.46490 | -0.45796 | 352 ft | 152 kts | 91° |
| 2026-05-07 19:45 | 51.46507 | -0.44090 | 1016 ft | 155 kts | 90° |
| 2026-05-07 19:46 | 51.46517 | -0.42321 | 1589 ft | 167 kts | 95° |
| 2026-05-07 19:46 | 51.46088 | -0.40497 | 2033 ft | 183 kts | 127° |
| 2026-05-07 19:46 | 51.45284 | -0.38814 | 2548 ft | 198 kts | 125° |
| 2026-05-07 19:46 | 51.44503 | -0.36848 | 2955 ft | 222 kts | 121° |
| 2026-05-07 19:47 | 51.43722 | -0.34565 | 3468 ft | 246 kts | 110° |
| 2026-05-07 19:47 | 51.43290 | -0.31867 | 4316 ft | 255 kts | 103° |
| 2026-05-07 19:47 | 51.42882 | -0.29067 | 5291 ft | 260 kts | 103° |
| 2026-05-07 19:47 | 51.42465 | -0.26184 | 5805 ft | 268 kts | 103° |
| 2026-05-07 19:48 | 51.42060 | -0.23262 | 5973 ft | 270 kts | 102° |
| 2026-05-07 19:48 | 51.41662 | -0.20318 | 6010 ft | 270 kts | 102° |
| 2026-05-07 19:48 | 51.41269 | -0.17391 | 6014 ft | 270 kts | 102° |
| 2026-05-07 19:48 | 51.40869 | -0.14451 | 6016 ft | 270 kts | 102° |
| 2026-05-07 19:49 | 51.40467 | -0.11517 | 6019 ft | 270 kts | 102° |
| 2026-05-07 19:49 | 51.40063 | -0.08584 | 6018 ft | 270 kts | 102° |
| 2026-05-07 19:49 | 51.39659 | -0.05651 | 6018 ft | 270 kts | 102° |
| 2026-05-07 19:49 | 51.39254 | -0.02719 | 6019 ft | 270 kts | 102° |
| 2026-05-07 19:50 | 51.38849 | 0.00181 | 6036 ft | 270 kts | 103° |
| 2026-05-07 19:50 | 51.38432 | 0.03159 | 6454 ft | 272 kts | 103° |
| 2026-05-07 19:50 | 51.38017 | 0.06123 | 7469 ft | 274 kts | 103° |
| 2026-05-07 19:50 | 51.37598 | 0.09133 | 8376 ft | 280 kts | 104° |
| 2026-05-07 19:51 | 51.37174 | 0.12167 | 9266 ft | 286 kts | 104° |
| 2026-05-07 19:51 | 51.36733 | 0.15313 | 10143 ft | 292 kts | 104° |
| 2026-05-07 19:51 | 51.36300 | 0.18659 | 10552 ft | 316 kts | 99° |
| 2026-05-07 19:51 | 51.36059 | 0.22221 | 10988 ft | 334 kts | 96° |
| 2026-05-07 19:52 | 51.35845 | 0.25950 | 11738 ft | 340 kts | 96° |
| 2026-05-07 19:52 | 51.35633 | 0.29744 | 12556 ft | 344 kts | 96° |
| 2026-05-07 19:52 | 51.35424 | 0.33577 | 13375 ft | 348 kts | 96° |
| 2026-05-07 19:52 | 51.35216 | 0.37462 | 14143 ft | 352 kts | 96° |
| 2026-05-07 19:53 | 51.35008 | 0.41388 | 14842 ft | 356 kts | 96° |
| 2026-05-07 19:53 | 51.34794 | 0.45411 | 15539 ft | 360 kts | 96° |
| 2026-05-07 19:53 | 51.34582 | 0.49377 | 16215 ft | 365 kts | 96° |
| 2026-05-07 19:53 | 51.34361 | 0.53434 | 16892 ft | 369 kts | 96° |
| 2026-05-07 19:54 | 51.34133 | 0.57553 | 17380 ft | 373 kts | 96° |
| 2026-05-07 19:54 | 51.33902 | 0.61692 | 17650 ft | 374 kts | 96° |
| 2026-05-07 19:54 | 51.33665 | 0.65898 | 17927 ft | 376 kts | 96° |
| 2026-05-07 19:54 | 51.33427 | 0.70065 | 18061 ft | 377 kts | 96° |
| 2026-05-07 19:55 | 51.33186 | 0.74242 | 18083 ft | 378 kts | 96° |
| 2026-05-07 19:55 | 51.32944 | 0.78430 | 18084 ft | 378 kts | 96° |
| 2026-05-07 19:55 | 51.32702 | 0.82618 | 18018 ft | 378 kts | 96° |
| 2026-05-07 19:55 | 51.32456 | 0.86809 | 18206 ft | 381 kts | 98° |
| 2026-05-07 19:56 | 51.31905 | 0.90895 | 18863 ft | 382 kts | 107° |
| 2026-05-07 19:56 | 51.31210 | 0.95063 | 19526 ft | 385 kts | 107° |
| 2026-05-07 19:56 | 51.30524 | 0.99162 | 20123 ft | 389 kts | 106° |
| 2026-05-07 19:56 | 51.29814 | 1.03408 | 20738 ft | 392 kts | 106° |
| 2026-05-07 19:57 | 51.29112 | 1.07584 | 21319 ft | 396 kts | 107° |
| 2026-05-07 19:57 | 51.28391 | 1.11848 | 21910 ft | 400 kts | 107° |
| 2026-05-07 19:57 | 51.27660 | 1.16155 | 22502 ft | 403 kts | 107° |
| 2026-05-07 19:57 | 51.26924 | 1.20493 | 23085 ft | 407 kts | 107° |
| 2026-05-07 19:58 | 51.26176 | 1.24879 | 23652 ft | 411 kts | 107° |
| 2026-05-07 19:58 | 51.25422 | 1.29293 | 24117 ft | 414 kts | 107° |
| 2026-05-07 19:58 | 51.24661 | 1.33731 | 24586 ft | 417 kts | 107° |
| 2026-05-07 19:58 | 51.23893 | 1.38217 | 25051 ft | 420 kts | 107° |
| 2026-05-07 19:59 | 51.23119 | 1.42722 | 25506 ft | 423 kts | 107° |
| 2026-05-07 19:59 | 51.22335 | 1.47253 | 25944 ft | 426 kts | 107° |
| 2026-05-07 19:59 | 51.21542 | 1.51821 | 26379 ft | 429 kts | 107° |
| 2026-05-07 19:59 | 51.20744 | 1.56416 | 26809 ft | 432 kts | 107° |
| 2026-05-07 20:00 | 51.19974 | 1.60850 | 27214 ft | 434 kts | 107° |
| 2026-05-07 20:00 | 51.19161 | 1.65504 | 27547 ft | 436 kts | 107° |
| 2026-05-07 20:00 | 51.18347 | 1.70134 | 27813 ft | 438 kts | 107° |
| 2026-05-07 20:00 | 51.17524 | 1.74810 | 28039 ft | 440 kts | 107° |
| 2026-05-07 20:01 | 51.16701 | 1.79510 | 28258 ft | 442 kts | 107° |
| 2026-05-07 20:01 | 51.15919 | 1.84266 | 28718 ft | 445 kts | 105° |
| 2026-05-07 20:01 | 51.15188 | 1.89069 | 29134 ft | 448 kts | 105° |
| 2026-05-07 20:01 | 51.14484 | 1.93922 | 29510 ft | 451 kts | 104° |
| 2026-05-07 20:02 | 51.13790 | 1.98805 | 29874 ft | 455 kts | 104° |
| 2026-05-07 20:02 | 51.13085 | 2.03726 | 30240 ft | 458 kts | 104° |
| 2026-05-07 20:02 | 51.12366 | 2.08674 | 30559 ft | 460 kts | 104° |
| 2026-05-07 20:02 | 51.11628 | 2.13645 | 30885 ft | 462 kts | 105° |
| 2026-05-07 20:03 | 51.10876 | 2.18635 | 31189 ft | 465 kts | 105° |
| 2026-05-07 20:03 | 51.10119 | 2.23647 | 31500 ft | 467 kts | 105° |
| 2026-05-07 20:03 | 51.09353 | 2.28688 | 31813 ft | 469 kts | 105° |
| 2026-05-07 20:03 | 51.08589 | 2.33720 | 32253 ft | 468 kts | 105° |
| 2026-05-07 20:04 | 51.07825 | 2.38747 | 32684 ft | 467 kts | 105° |
| 2026-05-07 20:04 | 51.07060 | 2.43761 | 33013 ft | 468 kts | 105° |
| 2026-05-07 20:04 | 51.05548 | 2.53628 | 33080 ft | 451 kts | 105° |
| 2026-05-07 20:05 | 51.04067 | 2.63267 | 33088 ft | 446 kts | 105° |
| 2026-05-07 20:05 | 51.02584 | 2.72834 | 33085 ft | 446 kts | 105° |
| 2026-05-07 20:06 | 51.01087 | 2.82385 | 33085 ft | 446 kts | 105° |
| 2026-05-07 20:06 | 50.99576 | 2.91945 | 33085 ft | 446 kts | 105° |
| 2026-05-07 20:07 | 50.98068 | 3.01508 | 33086 ft | 446 kts | 105° |
| 2026-05-07 20:07 | 50.96554 | 3.11055 | 33086 ft | 446 kts | 105° |
| 2026-05-07 20:08 | 50.95032 | 3.20587 | 33076 ft | 446 kts | 105° |
| 2026-05-07 20:08 | 50.93503 | 3.30113 | 33063 ft | 446 kts | 105° |
| 2026-05-07 20:09 | 50.91976 | 3.39563 | 33071 ft | 445 kts | 105° |
| 2026-05-07 20:10 | 50.89647 | 3.53814 | 33064 ft | 445 kts | 106° |
| 2026-05-07 20:10 | 50.88091 | 3.63310 | 33072 ft | 445 kts | 106° |
| 2026-05-07 20:11 | 50.86522 | 3.72803 | 33060 ft | 445 kts | 106° |
| 2026-05-07 20:11 | 50.84955 | 3.82289 | 33066 ft | 445 kts | 106° |
| 2026-05-07 20:12 | 50.83374 | 3.91793 | 33072 ft | 445 kts | 106° |
| 2026-05-07 20:12 | 50.81787 | 4.01230 | 33074 ft | 445 kts | 106° |
| 2026-05-07 20:13 | 50.80189 | 4.10684 | 33060 ft | 445 kts | 106° |
| 2026-05-07 20:13 | 50.78586 | 4.20154 | 32630 ft | 446 kts | 106° |
| 2026-05-07 20:13 | 50.77783 | 4.24890 | 32099 ft | 445 kts | 106° |
| 2026-05-07 20:14 | 50.76982 | 4.29596 | 31577 ft | 442 kts | 106° |
| 2026-05-07 20:14 | 50.76185 | 4.34263 | 31067 ft | 438 kts | 106° |
| 2026-05-07 20:14 | 50.75391 | 4.38894 | 30565 ft | 435 kts | 106° |
| 2026-05-07 20:14 | 50.74601 | 4.43491 | 30062 ft | 432 kts | 107° |
| 2026-05-07 20:15 | 50.73813 | 4.48052 | 29483 ft | 429 kts | 107° |
| 2026-05-07 20:15 | 50.73029 | 4.52576 | 28915 ft | 425 kts | 107° |
| 2026-05-07 20:15 | 50.72251 | 4.57055 | 28358 ft | 422 kts | 107° |
| 2026-05-07 20:15 | 50.71476 | 4.61495 | 27827 ft | 418 kts | 107° |
| 2026-05-07 20:16 | 50.70706 | 4.65907 | 27286 ft | 416 kts | 107° |
| 2026-05-07 20:16 | 50.69942 | 4.70285 | 26759 ft | 413 kts | 107° |
| 2026-05-07 20:16 | 50.69179 | 4.74642 | 26244 ft | 410 kts | 107° |
| 2026-05-07 20:16 | 50.68421 | 4.78956 | 25740 ft | 408 kts | 107° |
| 2026-05-07 20:17 | 50.67665 | 4.83260 | 25263 ft | 406 kts | 107° |
| 2026-05-07 20:17 | 50.66916 | 4.87513 | 25069 ft | 398 kts | 107° |
| 2026-05-07 20:17 | 50.66173 | 4.91704 | 25082 ft | 397 kts | 107° |
| 2026-05-07 20:17 | 50.65385 | 4.95867 | 25087 ft | 397 kts | 109° |
| 2026-05-07 20:18 | 50.64543 | 5.00010 | 25089 ft | 396 kts | 109° |
| 2026-05-07 20:18 | 50.63674 | 5.04133 | 25091 ft | 396 kts | 110° |
| 2026-05-07 20:18 | 50.62797 | 5.08245 | 25091 ft | 396 kts | 110° |
| 2026-05-07 20:18 | 50.61933 | 5.12308 | 25093 ft | 396 kts | 110° |
| 2026-05-07 20:19 | 50.61055 | 5.16479 | 25088 ft | 396 kts | 110° |
| 2026-05-07 20:19 | 50.60356 | 5.20614 | 25092 ft | 397 kts | 98° |
| 2026-05-07 20:19 | 50.60380 | 5.25011 | 24935 ft | 398 kts | 80° |
| 2026-05-07 20:19 | 50.61228 | 5.29073 | 24700 ft | 396 kts | 62° |
| 2026-05-07 20:20 | 50.62756 | 5.32643 | 24451 ft | 393 kts | 52° |
| 2026-05-07 20:20 | 50.64406 | 5.36079 | 24213 ft | 393 kts | 52° |
| 2026-05-07 20:20 | 50.66050 | 5.39504 | 23977 ft | 391 kts | 52° |
| 2026-05-07 20:20 | 50.67685 | 5.42921 | 23740 ft | 390 kts | 52° |
| 2026-05-07 20:21 | 50.69308 | 5.46331 | 23481 ft | 389 kts | 52° |
| 2026-05-07 20:21 | 50.70924 | 5.49741 | 23207 ft | 387 kts | 52° |
| 2026-05-07 20:21 | 50.72528 | 5.53133 | 22926 ft | 385 kts | 52° |
| 2026-05-07 20:21 | 50.74075 | 5.56580 | 22340 ft | 387 kts | 60° |
| 2026-05-07 20:22 | 50.75079 | 5.60605 | 21242 ft | 401 kts | 74° |
| 2026-05-07 20:22 | 50.75847 | 5.64913 | 20167 ft | 415 kts | 75° |
| 2026-05-07 20:22 | 50.76610 | 5.69292 | 19719 ft | 410 kts | 75° |
| 2026-05-07 20:22 | 50.77106 | 5.72160 | 19446 ft | 406 kts | 75° |
| 2026-05-07 20:23 | 50.77845 | 5.76433 | 19066 ft | 400 kts | 75° |
| 2026-05-07 20:23 | 50.78577 | 5.80638 | 18679 ft | 394 kts | 75° |
| 2026-05-07 20:23 | 50.79304 | 5.84792 | 18293 ft | 389 kts | 75° |
| 2026-05-07 20:23 | 50.80018 | 5.88872 | 17856 ft | 383 kts | 75° |
| 2026-05-07 20:24 | 50.80724 | 5.92906 | 17409 ft | 378 kts | 75° |
| 2026-05-07 20:24 | 50.81420 | 5.96888 | 16958 ft | 373 kts | 75° |
| 2026-05-07 20:24 | 50.82108 | 6.00824 | 16515 ft | 369 kts | 75° |
| 2026-05-07 20:24 | 50.82789 | 6.04716 | 16078 ft | 365 kts | 75° |
| 2026-05-07 20:25 | 50.83462 | 6.08573 | 15645 ft | 362 kts | 75° |
| 2026-05-07 20:25 | 50.84126 | 6.12395 | 15219 ft | 359 kts | 75° |
| 2026-05-07 20:25 | 50.84783 | 6.16183 | 14795 ft | 355 kts | 75° |
| 2026-05-07 20:25 | 50.85433 | 6.19941 | 14381 ft | 353 kts | 75° |
| 2026-05-07 20:26 | 50.86076 | 6.23674 | 13974 ft | 350 kts | 75° |
| 2026-05-07 20:26 | 50.86711 | 6.27372 | 13543 ft | 347 kts | 75° |
| 2026-05-07 20:26 | 50.87340 | 6.31042 | 13056 ft | 342 kts | 75° |
| 2026-05-07 20:26 | 50.87959 | 6.34657 | 12587 ft | 338 kts | 75° |
| 2026-05-07 20:27 | 50.88571 | 6.38227 | 12115 ft | 332 kts | 75° |
| 2026-05-07 20:27 | 50.89167 | 6.41717 | 11658 ft | 325 kts | 75° |
| 2026-05-07 20:27 | 50.89751 | 6.45146 | 11203 ft | 319 kts | 75° |
| 2026-05-07 20:27 | 50.90321 | 6.48512 | 10760 ft | 314 kts | 75° |
| 2026-05-07 20:28 | 50.90879 | 6.51825 | 10321 ft | 309 kts | 75° |
| 2026-05-07 20:28 | 50.91427 | 6.55086 | 9878 ft | 304 kts | 75° |
| 2026-05-07 20:28 | 50.91962 | 6.58280 | 9388 ft | 297 kts | 75° |
| 2026-05-07 20:28 | 50.92487 | 6.61395 | 8907 ft | 288 kts | 75° |
| 2026-05-07 20:29 | 50.92995 | 6.64422 | 8437 ft | 280 kts | 75° |
| 2026-05-07 20:29 | 50.93487 | 6.67366 | 7972 ft | 273 kts | 75° |
| 2026-05-07 20:29 | 50.93967 | 6.70231 | 7517 ft | 265 kts | 74° |
| 2026-05-07 20:29 | 50.94436 | 6.73028 | 7064 ft | 259 kts | 74° |
| 2026-05-07 20:30 | 50.94889 | 6.75728 | 6620 ft | 254 kts | 74° |
| 2026-05-07 20:30 | 50.95339 | 6.78413 | 6162 ft | 250 kts | 74° |
| 2026-05-07 20:30 | 50.95778 | 6.81042 | 5728 ft | 244 kts | 74° |
| 2026-05-07 20:30 | 50.96208 | 6.83618 | 5321 ft | 239 kts | 74° |
| 2026-05-07 20:31 | 50.96626 | 6.86144 | 4913 ft | 234 kts | 75° |
| 2026-05-07 20:31 | 50.97033 | 6.88611 | 4495 ft | 229 kts | 75° |
| 2026-05-07 20:31 | 50.97426 | 6.90996 | 4074 ft | 219 kts | 75° |
| 2026-05-07 20:31 | 50.97802 | 6.93283 | 3670 ft | 208 kts | 75° |
| 2026-05-07 20:32 | 50.98061 | 6.95499 | 3215 ft | 201 kts | 89° |
| 2026-05-07 20:32 | 50.97850 | 6.97598 | 2981 ft | 188 kts | 108° |
| 2026-05-07 20:32 | 50.97252 | 6.99376 | 2730 ft | 178 kts | 127° |
| 2026-05-07 20:32 | 50.96414 | 7.00718 | 2509 ft | 165 kts | 137° |
| 2026-05-07 20:33 | 50.95622 | 7.01877 | 2293 ft | 146 kts | 136° |
| 2026-05-07 20:33 | 50.94904 | 7.02926 | 2102 ft | 137 kts | 136° |
| 2026-05-07 20:33 | 50.94214 | 7.03932 | 1919 ft | 133 kts | 136° |
| 2026-05-07 20:33 | 50.93537 | 7.04918 | 1735 ft | 131 kts | 136° |
| 2026-05-07 20:34 | 50.92865 | 7.05898 | 1548 ft | 131 kts | 136° |
| 2026-05-07 20:34 | 50.92197 | 7.06873 | 1371 ft | 131 kts | 136° |
| 2026-05-07 20:34 | 50.91529 | 7.07844 | 1196 ft | 129 kts | 136° |
| 2026-05-07 20:34 | 50.90873 | 7.08798 | 1017 ft | 128 kts | 136° |
| 2026-05-07 20:35 | 50.90218 | 7.09751 | 845 ft | 128 kts | 136° |
| 2026-05-07 20:35 | 50.89559 | 7.10707 | 672 ft | 128 kts | 136° |
| 2026-05-07 20:35 | 50.88903 | 7.11661 | 509 ft | 128 kts | 136° |
| 2026-05-07 20:35 | 50.88248 | 7.12611 | 347 ft | 127 kts | 136° |
| 2026-05-07 20:36 | 50.87606 | 7.13538 | 242 ft | 115 kts | 137° |
| 2026-05-07 20:36 | 50.87120 | 7.14249 | 250 ft | 67 kts | 137° |
| 2026-05-07 20:36 | 50.86927 | 7.14522 | 259 ft | 19 kts | 153° |
| 2026-05-07 20:36 | 50.86878 | 7.14410 | 260 ft | 16 kts | 281° |
| 2026-05-07 20:37 | 50.86901 | 7.14217 | 256 ft | 19 kts | 280° |
| 2026-05-07 20:37 | 50.86956 | 7.14029 | 251 ft | 21 kts | 318° |
| 2026-05-07 20:37 | 50.87070 | 7.13867 | 243 ft | 19 kts | 317° |
| 2026-05-07 20:37 | 50.87167 | 7.13725 | 239 ft | 20 kts | 318° |
| 2026-05-07 20:38 | 50.87265 | 7.13584 | 237 ft | 19 kts | 318° |
| 2026-05-07 20:38 | 50.87365 | 7.13439 | 232 ft | 20 kts | 317° |
| 2026-05-07 20:38 | 50.87467 | 7.13291 | 233 ft | 20 kts | 317° |
| 2026-05-07 20:38 | 50.87566 | 7.13146 | 233 ft | 19 kts | 317° |
| 2026-05-07 20:39 | 50.87666 | 7.13001 | 233 ft | 20 kts | 317° |
| 2026-05-07 20:39 | 50.87764 | 7.12861 | 232 ft | 15 kts | 317° |
| 2026-05-07 20:39 | 50.87786 | 7.12715 | 232 ft | 15 kts | 273° |
| 2026-05-07 20:39 | 50.87855 | 7.12613 | 234 ft | 15 kts | 355° |
| 2026-05-07 20:40 | 50.87958 | 7.12617 | 232 ft | 13 kts | 347° |
| 2026-05-07 20:40 | 50.88021 | 7.12515 | 232 ft | 14 kts | 298° |
| 2026-05-07 20:40 | 50.88071 | 7.12382 | 232 ft | 14 kts | 305° |
| 2026-05-07 20:40 | 50.88124 | 7.12267 | 232 ft | 11 kts | 306° |
| 2026-05-07 20:41 | 50.88162 | 7.12178 | 232 ft | 8 kts | 291° |
| 2026-05-07 20:41 | 50.88127 | 7.12118 | 232 ft | 5 kts | 215° |
| 2026-05-07 20:41 | 50.88110 | 7.12099 | 232 ft | 2 kts | 215° |
| 2026-05-07 20:41 | 50.88104 | 7.12091 | 232 ft | 0 kts | 215° |